sensor_id;sensor_type;location;lat;lon;timestamp;pressure;altitude;pressure_sealevel;temperature;humidity
43480;BME280;29067;35.492;-97.520;2024-02-28T00:00:43;95472.73;;;22.10;27.90
43480;BME280;29067;35.492;-97.520;2024-02-28T00:03:10;95468.18;;;20.86;28.92
43480;BME280;29067;35.492;-97.520;2024-02-28T00:05:38;95475.64;;;20.87;29.16
43480;BME280;29067;35.492;-97.520;2024-02-28T00:08:06;95475.92;;;21.88;28.79
43480;BME280;29067;35.492;-97.520;2024-02-28T00:10:34;95479.36;;;21.75;28.00
43480;BME280;29067;35.492;-97.520;2024-02-28T00:13:02;95487.75;;;21.11;29.04
43480;BME280;29067;35.492;-97.520;2024-02-28T00:15:29;95493.02;;;19.97;29.54
43480;BME280;29067;35.492;-97.520;2024-02-28T00:17:57;95489.64;;;20.28;29.59
43480;BME280;29067;35.492;-97.520;2024-02-28T00:20:25;95483.97;;;21.20;29.44
43480;BME280;29067;35.492;-97.520;2024-02-28T00:22:52;95494.09;;;19.60;29.67
43480;BME280;29067;35.492;-97.520;2024-02-28T00:25:21;95492.62;;;19.86;29.45
43480;BME280;29067;35.492;-97.520;2024-02-28T00:27:49;95490.07;;;19.58;29.70
43480;BME280;29067;35.492;-97.520;2024-02-28T00:30:18;95486.77;;;19.99;29.36
43480;BME280;29067;35.492;-97.520;2024-02-28T00:32:45;95503.45;;;19.48;29.60
43480;BME280;29067;35.492;-97.520;2024-02-28T00:35:13;95517.55;;;19.58;29.78
43480;BME280;29067;35.492;-97.520;2024-02-28T00:37:41;95516.57;;;18.86;30.26
43480;BME280;29067;35.492;-97.520;2024-02-28T00:40:09;95525.36;;;18.87;30.39
43480;BME280;29067;35.492;-97.520;2024-02-28T00:42:38;95656.42;;;19.07;30.59
43480;BME280;29067;35.492;-97.520;2024-02-28T00:45:07;95717.89;;;17.32;29.82
43480;BME280;29067;35.492;-97.520;2024-02-28T00:47:36;95744.65;;;16.23;28.38
43480;BME280;29067;35.492;-97.520;2024-02-28T00:50:04;95768.33;;;14.06;29.28
43480;BME280;29067;35.492;-97.520;2024-02-28T00:52:33;95801.65;;;12.29;31.41
43480;BME280;29067;35.492;-97.520;2024-02-28T00:55:00;95862.06;;;12.87;31.83
43480;BME280;29067;35.492;-97.520;2024-02-28T00:57:28;95853.46;;;11.77;32.44
43480;BME280;29067;35.492;-97.520;2024-02-28T00:59:56;95852.97;;;10.74;33.36
43480;BME280;29067;35.492;-97.520;2024-02-28T01:02:24;95875.14;;;10.17;33.82
43480;BME280;29067;35.492;-97.520;2024-02-28T01:04:52;95900.88;;;11.30;33.46
43480;BME280;29067;35.492;-97.520;2024-02-28T01:07:19;95916.84;;;9.59;34.64
43480;BME280;29067;35.492;-97.520;2024-02-28T01:09:47;95935.20;;;10.45;34.79
43480;BME280;29067;35.492;-97.520;2024-02-28T01:12:15;95970.16;;;9.98;34.35
43480;BME280;29067;35.492;-97.520;2024-02-28T01:14:43;95992.71;;;9.64;34.98
43480;BME280;29067;35.492;-97.520;2024-02-28T01:17:11;96001.83;;;10.65;34.91
43480;BME280;29067;35.492;-97.520;2024-02-28T01:19:38;96002.95;;;9.74;34.53
43480;BME280;29067;35.492;-97.520;2024-02-28T01:22:06;96010.80;;;9.93;34.87
43480;BME280;29067;35.492;-97.520;2024-02-28T01:24:34;96024.00;;;10.50;34.49
43480;BME280;29067;35.492;-97.520;2024-02-28T01:27:02;96052.47;;;9.45;34.79
43480;BME280;29067;35.492;-97.520;2024-02-28T01:29:30;96059.94;;;7.54;35.86
43480;BME280;29067;35.492;-97.520;2024-02-28T01:31:58;96061.10;;;8.76;36.17
43480;BME280;29067;35.492;-97.520;2024-02-28T01:34:26;96079.89;;;7.94;35.56
43480;BME280;29067;35.492;-97.520;2024-02-28T01:36:54;96082.36;;;8.24;35.14
43480;BME280;29067;35.492;-97.520;2024-02-28T01:39:22;96112.51;;;8.21;35.48
43480;BME280;29067;35.492;-97.520;2024-02-28T01:41:52;96102.21;;;8.02;36.08
43480;BME280;29067;35.492;-97.520;2024-02-28T01:44:20;96099.15;;;8.39;35.74
43480;BME280;29067;35.492;-97.520;2024-02-28T01:46:48;96110.88;;;8.54;35.03
43480;BME280;29067;35.492;-97.520;2024-02-28T01:49:17;96150.48;;;6.99;35.51
43480;BME280;29067;35.492;-97.520;2024-02-28T01:51:47;96160.40;;;7.32;35.63
43480;BME280;29067;35.492;-97.520;2024-02-28T01:54:15;96187.55;;;7.07;36.06
43480;BME280;29067;35.492;-97.520;2024-02-28T01:56:43;96208.22;;;6.95;35.56
43480;BME280;29067;35.492;-97.520;2024-02-28T01:59:11;96241.86;;;6.26;36.81
43480;BME280;29067;35.492;-97.520;2024-02-28T02:01:39;96236.11;;;6.49;36.43
43480;BME280;29067;35.492;-97.520;2024-02-28T02:04:07;96219.59;;;6.64;35.28
43480;BME280;29067;35.492;-97.520;2024-02-28T02:06:38;96239.36;;;6.34;35.34
43480;BME280;29067;35.492;-97.520;2024-02-28T02:09:09;96240.27;;;6.29;35.67
43480;BME280;29067;35.492;-97.520;2024-02-28T02:11:38;96260.14;;;5.82;36.21
43480;BME280;29067;35.492;-97.520;2024-02-28T02:14:07;96253.56;;;5.25;36.15
43480;BME280;29067;35.492;-97.520;2024-02-28T02:16:34;96255.11;;;6.11;35.41
43480;BME280;29067;35.492;-97.520;2024-02-28T02:19:02;96252.77;;;5.34;36.37
43480;BME280;29067;35.492;-97.520;2024-02-28T02:21:34;96269.97;;;5.87;35.04
43480;BME280;29067;35.492;-97.520;2024-02-28T02:24:03;96290.44;;;5.26;36.54
43480;BME280;29067;35.492;-97.520;2024-02-28T02:26:30;96307.59;;;5.13;37.02
43480;BME280;29067;35.492;-97.520;2024-02-28T02:28:58;96304.41;;;4.75;37.66
43480;BME280;29067;35.492;-97.520;2024-02-28T02:31:26;96323.42;;;4.24;38.10
43480;BME280;29067;35.492;-97.520;2024-02-28T02:33:54;96323.74;;;4.87;36.34
43480;BME280;29067;35.492;-97.520;2024-02-28T02:36:23;96335.61;;;4.82;37.97
43480;BME280;29067;35.492;-97.520;2024-02-28T02:38:51;96354.13;;;4.66;38.02
43480;BME280;29067;35.492;-97.520;2024-02-28T02:41:19;96358.67;;;4.40;37.13
43480;BME280;29067;35.492;-97.520;2024-02-28T02:43:46;96374.15;;;3.95;37.77
43480;BME280;29067;35.492;-97.520;2024-02-28T02:46:14;96387.26;;;4.19;38.04
43480;BME280;29067;35.492;-97.520;2024-02-28T02:48:42;96385.57;;;4.06;37.32
43480;BME280;29067;35.492;-97.520;2024-02-28T02:51:10;96372.42;;;4.85;36.11
43480;BME280;29067;35.492;-97.520;2024-02-28T02:53:38;96382.41;;;5.01;35.33
43480;BME280;29067;35.492;-97.520;2024-02-28T02:56:07;96402.86;;;2.84;37.44
43480;BME280;29067;35.492;-97.520;2024-02-28T02:58:35;96413.51;;;2.77;37.69
43480;BME280;29067;35.492;-97.520;2024-02-28T03:01:03;96440.30;;;3.27;36.90
43480;BME280;29067;35.492;-97.520;2024-02-28T03:03:31;96436.49;;;2.69;37.43
43480;BME280;29067;35.492;-97.520;2024-02-28T03:05:59;96450.78;;;3.17;36.98
43480;BME280;29067;35.492;-97.520;2024-02-28T03:08:27;96435.71;;;3.64;37.04
43480;BME280;29067;35.492;-97.520;2024-02-28T03:10:55;96464.87;;;2.99;37.10
43480;BME280;29067;35.492;-97.520;2024-02-28T03:13:23;96480.44;;;3.18;36.71
43480;BME280;29067;35.492;-97.520;2024-02-28T03:15:51;96491.27;;;2.75;36.50
43480;BME280;29067;35.492;-97.520;2024-02-28T03:18:19;96502.29;;;2.23;36.72
43480;BME280;29067;35.492;-97.520;2024-02-28T03:20:47;96517.38;;;2.50;36.81
43480;BME280;29067;35.492;-97.520;2024-02-28T03:23:15;96512.85;;;2.60;36.64
43480;BME280;29067;35.492;-97.520;2024-02-28T03:25:43;96524.01;;;3.18;36.07
43480;BME280;29067;35.492;-97.520;2024-02-28T03:28:11;96527.95;;;2.92;36.78
43480;BME280;29067;35.492;-97.520;2024-02-28T03:30:39;96541.72;;;2.34;36.76
43480;BME280;29067;35.492;-97.520;2024-02-28T03:33:07;96555.54;;;2.25;36.78
43480;BME280;29067;35.492;-97.520;2024-02-28T03:35:35;96566.82;;;3.28;35.96
43480;BME280;29067;35.492;-97.520;2024-02-28T03:38:04;96575.31;;;2.52;35.93
43480;BME280;29067;35.492;-97.520;2024-02-28T03:40:32;96593.95;;;2.05;36.62
43480;BME280;29067;35.492;-97.520;2024-02-28T03:43:00;96589.02;;;2.70;35.85
43480;BME280;29067;35.492;-97.520;2024-02-28T03:45:28;96596.48;;;2.43;36.49
43480;BME280;29067;35.492;-97.520;2024-02-28T03:47:56;96604.29;;;1.63;36.11
43480;BME280;29067;35.492;-97.520;2024-02-28T03:50:24;96617.51;;;1.87;35.78
43480;BME280;29067;35.492;-97.520;2024-02-28T03:52:52;96624.21;;;2.44;35.69
43480;BME280;29067;35.492;-97.520;2024-02-28T03:55:20;96644.84;;;1.51;37.00
43480;BME280;29067;35.492;-97.520;2024-02-28T03:57:49;96646.70;;;2.76;36.74
43480;BME280;29067;35.492;-97.520;2024-02-28T04:00:17;96650.97;;;2.44;36.34
43480;BME280;29067;35.492;-97.520;2024-02-28T04:02:45;96665.99;;;1.91;36.38
43480;BME280;29067;35.492;-97.520;2024-02-28T04:05:14;96683.69;;;1.46;37.10
43480;BME280;29067;35.492;-97.520;2024-02-28T04:07:41;96688.48;;;1.63;36.42
43480;BME280;29067;35.492;-97.520;2024-02-28T04:10:10;96702.99;;;0.91;36.94
43480;BME280;29067;35.492;-97.520;2024-02-28T04:12:38;96726.31;;;0.39;38.05
43480;BME280;29067;35.492;-97.520;2024-02-28T04:15:06;96725.35;;;1.00;37.19
43480;BME280;29067;35.492;-97.520;2024-02-28T04:17:34;96740.27;;;0.21;37.68
43480;BME280;29067;35.492;-97.520;2024-02-28T04:20:02;96754.36;;;0.33;38.65
43480;BME280;29067;35.492;-97.520;2024-02-28T04:22:30;96751.80;;;-0.61;39.32
43480;BME280;29067;35.492;-97.520;2024-02-28T04:24:58;96764.91;;;-0.45;38.90
43480;BME280;29067;35.492;-97.520;2024-02-28T04:27:26;96767.68;;;-0.45;39.49
43480;BME280;29067;35.492;-97.520;2024-02-28T04:29:54;96759.89;;;-0.89;39.45
43480;BME280;29067;35.492;-97.520;2024-02-28T04:32:22;96769.23;;;0.42;39.04
43480;BME280;29067;35.492;-97.520;2024-02-28T04:34:50;96777.23;;;-0.61;39.34
43480;BME280;29067;35.492;-97.520;2024-02-28T04:37:18;96800.30;;;0.60;39.93
43480;BME280;29067;35.492;-97.520;2024-02-28T04:39:46;96799.69;;;0.90;38.91
43480;BME280;29067;35.492;-97.520;2024-02-28T04:42:16;96792.08;;;-0.63;39.72
43480;BME280;29067;35.492;-97.520;2024-02-28T04:44:44;96797.43;;;0.48;39.96
43480;BME280;29067;35.492;-97.520;2024-02-28T04:47:12;96814.16;;;-0.58;40.51
43480;BME280;29067;35.492;-97.520;2024-02-28T04:49:40;96821.56;;;0.15;39.15
43480;BME280;29067;35.492;-97.520;2024-02-28T04:52:08;96833.25;;;-0.32;39.00
43480;BME280;29067;35.492;-97.520;2024-02-28T04:54:36;96852.77;;;-1.00;39.73
43480;BME280;29067;35.492;-97.520;2024-02-28T04:57:04;96856.72;;;-0.14;40.04
43480;BME280;29067;35.492;-97.520;2024-02-28T04:59:32;96844.11;;;-0.72;40.38
43480;BME280;29067;35.492;-97.520;2024-02-28T05:02:00;96846.40;;;-1.92;40.30
43480;BME280;29067;35.492;-97.520;2024-02-28T05:04:33;96856.61;;;-1.26;39.63
43480;BME280;29067;35.492;-97.520;2024-02-28T05:07:02;96879.31;;;-1.96;39.75
43480;BME280;29067;35.492;-97.520;2024-02-28T05:09:30;96888.44;;;-1.90;40.13
43480;BME280;29067;35.492;-97.520;2024-02-28T05:11:58;96898.02;;;-1.15;40.20
43480;BME280;29067;35.492;-97.520;2024-02-28T05:14:26;96917.32;;;-1.66;39.87
43480;BME280;29067;35.492;-97.520;2024-02-28T05:16:55;96933.10;;;-1.42;39.39
43480;BME280;29067;35.492;-97.520;2024-02-28T05:19:22;96927.14;;;-1.34;38.59
43480;BME280;29067;35.492;-97.520;2024-02-28T05:21:51;96923.35;;;-1.57;38.99
43480;BME280;29067;35.492;-97.520;2024-02-28T05:24:19;96915.77;;;-1.47;38.59
43480;BME280;29067;35.492;-97.520;2024-02-28T05:26:47;96938.96;;;-1.36;39.98
43480;BME280;29067;35.492;-97.520;2024-02-28T05:29:15;96955.00;;;-2.92;39.48
43480;BME280;29067;35.492;-97.520;2024-02-28T05:31:43;96980.37;;;-2.24;39.87
43480;BME280;29067;35.492;-97.520;2024-02-28T05:34:11;96997.19;;;-2.48;40.42
43480;BME280;29067;35.492;-97.520;2024-02-28T05:36:41;97011.82;;;-2.79;40.78
43480;BME280;29067;35.492;-97.520;2024-02-28T05:39:09;97017.55;;;-2.50;39.91
43480;BME280;29067;35.492;-97.520;2024-02-28T05:41:37;97002.68;;;-1.89;39.36
43480;BME280;29067;35.492;-97.520;2024-02-28T05:44:06;97018.25;;;-1.98;38.95
43480;BME280;29067;35.492;-97.520;2024-02-28T05:46:34;97025.65;;;-2.16;40.09
43480;BME280;29067;35.492;-97.520;2024-02-28T05:49:02;97032.36;;;-2.38;39.67
43480;BME280;29067;35.492;-97.520;2024-02-28T05:51:30;97031.22;;;-1.97;38.84
43480;BME280;29067;35.492;-97.520;2024-02-28T05:53:58;97045.47;;;-1.24;39.92
43480;BME280;29067;35.492;-97.520;2024-02-28T05:56:26;97051.75;;;-1.89;38.68
43480;BME280;29067;35.492;-97.520;2024-02-28T05:58:54;97066.52;;;-0.64;39.07
43480;BME280;29067;35.492;-97.520;2024-02-28T06:01:22;97088.31;;;-1.62;39.59
43480;BME280;29067;35.492;-97.520;2024-02-28T06:03:51;97086.37;;;-2.43;39.94
43480;BME280;29067;35.492;-97.520;2024-02-28T06:06:19;97100.56;;;-1.07;39.06
43480;BME280;29067;35.492;-97.520;2024-02-28T06:08:47;97107.58;;;-1.98;38.39
43480;BME280;29067;35.492;-97.520;2024-02-28T06:11:15;97109.95;;;-3.05;39.04
43480;BME280;29067;35.492;-97.520;2024-02-28T06:13:43;97101.46;;;-1.79;38.08
43480;BME280;29067;35.492;-97.520;2024-02-28T06:16:14;97110.64;;;-2.73;38.33
43480;BME280;29067;35.492;-97.520;2024-02-28T06:18:42;97113.65;;;-3.85;39.95
43480;BME280;29067;35.492;-97.520;2024-02-28T06:21:10;97122.57;;;-3.02;38.89
43480;BME280;29067;35.492;-97.520;2024-02-28T06:23:38;97122.86;;;-2.84;39.66
43480;BME280;29067;35.492;-97.520;2024-02-28T06:26:07;97144.27;;;-2.78;38.65
43480;BME280;29067;35.492;-97.520;2024-02-28T06:28:35;97174.73;;;-2.46;39.19
43480;BME280;29067;35.492;-97.520;2024-02-28T06:31:03;97180.55;;;-2.43;38.59
43480;BME280;29067;35.492;-97.520;2024-02-28T06:33:31;97181.89;;;-2.57;37.76
43480;BME280;29067;35.492;-97.520;2024-02-28T06:35:59;97194.38;;;-4.40;40.07
43480;BME280;29067;35.492;-97.520;2024-02-28T06:38:27;97203.28;;;-3.79;39.37
43480;BME280;29067;35.492;-97.520;2024-02-28T06:40:56;97212.69;;;-4.14;39.43
43480;BME280;29067;35.492;-97.520;2024-02-28T06:43:23;97209.65;;;-4.43;39.61
43480;BME280;29067;35.492;-97.520;2024-02-28T06:45:52;97219.41;;;-3.99;40.32
43480;BME280;29067;35.492;-97.520;2024-02-28T06:48:20;97241.40;;;-4.71;40.43
43480;BME280;29067;35.492;-97.520;2024-02-28T06:50:48;97259.71;;;-4.47;40.24
43480;BME280;29067;35.492;-97.520;2024-02-28T06:53:16;97266.29;;;-4.44;40.92
43480;BME280;29067;35.492;-97.520;2024-02-28T06:55:44;97264.84;;;-3.40;40.08
43480;BME280;29067;35.492;-97.520;2024-02-28T06:58:13;97270.52;;;-3.90;39.94
43480;BME280;29067;35.492;-97.520;2024-02-28T07:00:41;97292.74;;;-5.90;42.35
43480;BME280;29067;35.492;-97.520;2024-02-28T07:03:09;97304.28;;;-4.95;41.37
43480;BME280;29067;35.492;-97.520;2024-02-28T07:05:37;97317.30;;;-5.11;40.68
43480;BME280;29067;35.492;-97.520;2024-02-28T07:08:05;97325.75;;;-4.54;40.52
43480;BME280;29067;35.492;-97.520;2024-02-28T07:10:33;97328.57;;;-4.51;39.87
43480;BME280;29067;35.492;-97.520;2024-02-28T07:13:02;97335.87;;;-3.52;39.96
43480;BME280;29067;35.492;-97.520;2024-02-28T07:15:30;97342.05;;;-4.05;40.25
43480;BME280;29067;35.492;-97.520;2024-02-28T07:17:58;97364.70;;;-5.16;41.30
43480;BME280;29067;35.492;-97.520;2024-02-28T07:20:26;97354.64;;;-5.01;40.52
43480;BME280;29067;35.492;-97.520;2024-02-28T07:22:54;97375.13;;;-5.29;41.58
43480;BME280;29067;35.492;-97.520;2024-02-28T07:25:23;97373.87;;;-5.27;42.07
43480;BME280;29067;35.492;-97.520;2024-02-28T07:27:51;97368.67;;;-6.03;43.14
43480;BME280;29067;35.492;-97.520;2024-02-28T07:30:19;97368.66;;;-4.66;42.29
43480;BME280;29067;35.492;-97.520;2024-02-28T07:32:47;97365.41;;;-5.03;43.24
43480;BME280;29067;35.492;-97.520;2024-02-28T07:35:16;97361.40;;;-3.84;42.82
43480;BME280;29067;35.492;-97.520;2024-02-28T07:37:44;97367.15;;;-4.06;41.99
43480;BME280;29067;35.492;-97.520;2024-02-28T07:40:12;97358.97;;;-5.21;41.06
43480;BME280;29067;35.492;-97.520;2024-02-28T07:42:41;97366.82;;;-4.78;42.87
43480;BME280;29067;35.492;-97.520;2024-02-28T07:45:09;97372.85;;;-4.62;43.28
43480;BME280;29067;35.492;-97.520;2024-02-28T07:47:37;97380.77;;;-6.31;43.55
43480;BME280;29067;35.492;-97.520;2024-02-28T07:50:06;97385.27;;;-4.96;42.94
43480;BME280;29067;35.492;-97.520;2024-02-28T07:52:35;97386.29;;;-4.95;43.05
43480;BME280;29067;35.492;-97.520;2024-02-28T07:55:03;97404.47;;;-4.57;43.74
43480;BME280;29067;35.492;-97.520;2024-02-28T07:57:32;97421.97;;;-5.12;44.10
43480;BME280;29067;35.492;-97.520;2024-02-28T08:00:00;97424.25;;;-5.20;43.50
43480;BME280;29067;35.492;-97.520;2024-02-28T08:02:28;97435.02;;;-6.04;44.23
43480;BME280;29067;35.492;-97.520;2024-02-28T08:04:56;97445.37;;;-5.47;43.70
43480;BME280;29067;35.492;-97.520;2024-02-28T08:07:24;97443.79;;;-4.54;43.62
43480;BME280;29067;35.492;-97.520;2024-02-28T08:09:52;97448.29;;;-4.90;43.46
43480;BME280;29067;35.492;-97.520;2024-02-28T08:12:21;97461.44;;;-5.07;43.13
43480;BME280;29067;35.492;-97.520;2024-02-28T08:14:49;97473.84;;;-5.80;44.04
43480;BME280;29067;35.492;-97.520;2024-02-28T08:17:17;97464.40;;;-4.85;42.90
43480;BME280;29067;35.492;-97.520;2024-02-28T08:19:45;97480.71;;;-4.96;43.12
43480;BME280;29067;35.492;-97.520;2024-02-28T08:22:14;97472.12;;;-5.39;45.98
43480;BME280;29067;35.492;-97.520;2024-02-28T08:24:42;97465.47;;;-6.38;44.74
43480;BME280;29067;35.492;-97.520;2024-02-28T08:27:10;97465.92;;;-5.26;45.43
43480;BME280;29067;35.492;-97.520;2024-02-28T08:29:40;97472.22;;;-5.21;44.66
43480;BME280;29067;35.492;-97.520;2024-02-28T08:32:09;97479.99;;;-5.28;44.17
43480;BME280;29067;35.492;-97.520;2024-02-28T08:34:37;97487.59;;;-4.72;43.82
43480;BME280;29067;35.492;-97.520;2024-02-28T08:37:05;97477.50;;;-5.57;44.00
43480;BME280;29067;35.492;-97.520;2024-02-28T08:39:33;97486.09;;;-6.28;44.94
43480;BME280;29067;35.492;-97.520;2024-02-28T08:42:01;97490.86;;;-5.39;44.26
43480;BME280;29067;35.492;-97.520;2024-02-28T08:44:31;97495.63;;;-6.15;43.75
43480;BME280;29067;35.492;-97.520;2024-02-28T08:46:59;97493.42;;;-5.75;44.61
43480;BME280;29067;35.492;-97.520;2024-02-28T08:49:27;97487.99;;;-7.09;45.67
43480;BME280;29067;35.492;-97.520;2024-02-28T08:51:55;97485.70;;;-5.81;44.63
43480;BME280;29067;35.492;-97.520;2024-02-28T08:54:23;97499.61;;;-5.67;45.28
43480;BME280;29067;35.492;-97.520;2024-02-28T08:56:52;97494.23;;;-6.35;45.24
43480;BME280;29067;35.492;-97.520;2024-02-28T08:59:20;97492.34;;;-5.44;45.74
43480;BME280;29067;35.492;-97.520;2024-02-28T09:01:48;97504.96;;;-7.49;46.09
43480;BME280;29067;35.492;-97.520;2024-02-28T09:04:16;97514.67;;;-6.86;46.94
43480;BME280;29067;35.492;-97.520;2024-02-28T09:06:45;97517.35;;;-6.51;47.26
43480;BME280;29067;35.492;-97.520;2024-02-28T09:09:13;97538.28;;;-7.12;46.36
43480;BME280;29067;35.492;-97.520;2024-02-28T09:11:41;97527.27;;;-5.75;44.45
43480;BME280;29067;35.492;-97.520;2024-02-28T09:14:09;97529.36;;;-6.03;46.95
43480;BME280;29067;35.492;-97.520;2024-02-28T09:16:38;97525.98;;;-6.23;45.61
43480;BME280;29067;35.492;-97.520;2024-02-28T09:19:06;97509.57;;;-6.26;44.93
43480;BME280;29067;35.492;-97.520;2024-02-28T09:21:34;97534.44;;;-7.75;44.93
43480;BME280;29067;35.492;-97.520;2024-02-28T09:24:03;97556.71;;;-6.64;44.74
43480;BME280;29067;35.492;-97.520;2024-02-28T09:26:31;97558.54;;;-7.21;46.00
43480;BME280;29067;35.492;-97.520;2024-02-28T09:28:59;97564.14;;;-5.58;44.30
43480;BME280;29067;35.492;-97.520;2024-02-28T09:31:27;97578.52;;;-6.08;44.58
43480;BME280;29067;35.492;-97.520;2024-02-28T09:33:56;97574.68;;;-5.61;43.84
43480;BME280;29067;35.492;-97.520;2024-02-28T09:36:24;97589.36;;;-5.76;43.21
43480;BME280;29067;35.492;-97.520;2024-02-28T09:38:52;97610.65;;;-6.34;43.07
43480;BME280;29067;35.492;-97.520;2024-02-28T09:41:21;97601.17;;;-5.36;43.28
43480;BME280;29067;35.492;-97.520;2024-02-28T09:43:49;97607.65;;;-5.36;42.36
43480;BME280;29067;35.492;-97.520;2024-02-28T09:46:18;97602.20;;;-7.12;42.98
43480;BME280;29067;35.492;-97.520;2024-02-28T09:48:47;97597.81;;;-6.16;43.23
43480;BME280;29067;35.492;-97.520;2024-02-28T09:51:18;97603.52;;;-6.74;42.80
43480;BME280;29067;35.492;-97.520;2024-02-28T09:53:49;97615.65;;;-6.35;42.19
43480;BME280;29067;35.492;-97.520;2024-02-28T09:56:17;97641.38;;;-7.01;42.76
43480;BME280;29067;35.492;-97.520;2024-02-28T09:58:46;97644.03;;;-6.85;43.41
43480;BME280;29067;35.492;-97.520;2024-02-28T10:01:15;97651.78;;;-7.98;44.55
43480;BME280;29067;35.492;-97.520;2024-02-28T10:03:46;97654.50;;;-8.16;43.52
43480;BME280;29067;35.492;-97.520;2024-02-28T10:06:15;97670.42;;;-6.90;42.70
43480;BME280;29067;35.492;-97.520;2024-02-28T10:08:43;97695.05;;;-7.26;43.67
43480;BME280;29067;35.492;-97.520;2024-02-28T10:11:11;97700.95;;;-7.96;44.27
43480;BME280;29067;35.492;-97.520;2024-02-28T10:13:39;97708.02;;;-7.43;42.56
43480;BME280;29067;35.492;-97.520;2024-02-28T10:16:08;97703.35;;;-7.68;42.81
43480;BME280;29067;35.492;-97.520;2024-02-28T10:18:36;97707.72;;;-7.82;42.83
43480;BME280;29067;35.492;-97.520;2024-02-28T10:21:05;97707.33;;;-7.46;42.60
43480;BME280;29067;35.492;-97.520;2024-02-28T10:23:33;97707.71;;;-7.37;43.65
43480;BME280;29067;35.492;-97.520;2024-02-28T10:26:01;97698.06;;;-7.76;42.33
43480;BME280;29067;35.492;-97.520;2024-02-28T10:28:29;97698.56;;;-7.14;43.27
43480;BME280;29067;35.492;-97.520;2024-02-28T10:30:58;97715.99;;;-7.24;42.50
43480;BME280;29067;35.492;-97.520;2024-02-28T10:33:27;97704.82;;;-6.90;42.35
43480;BME280;29067;35.492;-97.520;2024-02-28T10:35:55;97698.65;;;-7.38;41.97
43480;BME280;29067;35.492;-97.520;2024-02-28T10:38:23;97707.91;;;-7.24;42.06
43480;BME280;29067;35.492;-97.520;2024-02-28T10:40:54;97720.05;;;-7.28;41.65
43480;BME280;29067;35.492;-97.520;2024-02-28T10:43:23;97736.23;;;-6.58;41.44
43480;BME280;29067;35.492;-97.520;2024-02-28T10:45:51;97736.29;;;-7.44;42.35
43480;BME280;29067;35.492;-97.520;2024-02-28T10:48:21;97751.90;;;-7.98;42.45
43480;BME280;29067;35.492;-97.520;2024-02-28T10:50:51;97756.14;;;-7.33;42.91
43480;BME280;29067;35.492;-97.520;2024-02-28T10:53:22;97760.79;;;-7.02;41.65
43480;BME280;29067;35.492;-97.520;2024-02-28T10:55:52;97762.67;;;-7.82;43.06
43480;BME280;29067;35.492;-97.520;2024-02-28T10:58:22;97775.71;;;-7.05;42.53
43480;BME280;29067;35.492;-97.520;2024-02-28T11:00:52;97794.55;;;-7.98;41.55
43480;BME280;29067;35.492;-97.520;2024-02-28T11:03:20;97818.07;;;-7.05;42.60
43480;BME280;29067;35.492;-97.520;2024-02-28T11:05:48;97824.57;;;-6.09;41.53
43480;BME280;29067;35.492;-97.520;2024-02-28T11:08:22;97823.70;;;-7.65;40.82
43480;BME280;29067;35.492;-97.520;2024-02-28T11:10:55;97837.92;;;-7.15;41.59
43480;BME280;29067;35.492;-97.520;2024-02-28T11:13:24;97844.85;;;-6.77;41.19
43480;BME280;29067;35.492;-97.520;2024-02-28T11:15:52;97855.29;;;-7.21;41.33
43480;BME280;29067;35.492;-97.520;2024-02-28T11:18:21;97858.55;;;-7.85;41.76
43480;BME280;29067;35.492;-97.520;2024-02-28T11:20:49;97860.92;;;-6.52;41.46
43480;BME280;29067;35.492;-97.520;2024-02-28T11:23:18;97877.21;;;-7.85;41.68
43480;BME280;29067;35.492;-97.520;2024-02-28T11:25:46;97880.83;;;-7.97;40.74
43480;BME280;29067;35.492;-97.520;2024-02-28T11:28:15;97895.01;;;-7.88;42.23
43480;BME280;29067;35.492;-97.520;2024-02-28T11:30:43;97893.97;;;-6.61;41.32
43480;BME280;29067;35.492;-97.520;2024-02-28T11:33:12;97904.21;;;-6.99;40.34
43480;BME280;29067;35.492;-97.520;2024-02-28T11:35:40;97905.61;;;-6.72;39.85
43480;BME280;29067;35.492;-97.520;2024-02-28T11:38:09;97922.62;;;-7.33;40.40
43480;BME280;29067;35.492;-97.520;2024-02-28T11:40:37;97939.15;;;-7.14;40.62
43480;BME280;29067;35.492;-97.520;2024-02-28T11:43:05;97938.04;;;-6.88;40.51
43480;BME280;29067;35.492;-97.520;2024-02-28T11:45:39;97939.15;;;-6.56;40.28
43480;BME280;29067;35.492;-97.520;2024-02-28T11:48:08;97980.79;;;-7.50;40.12
43480;BME280;29067;35.492;-97.520;2024-02-28T11:50:38;97988.24;;;-8.04;40.20
43480;BME280;29067;35.492;-97.520;2024-02-28T11:53:06;97991.58;;;-7.14;39.23
43480;BME280;29067;35.492;-97.520;2024-02-28T11:55:34;97976.95;;;-8.62;39.73
43480;BME280;29067;35.492;-97.520;2024-02-28T11:58:03;97986.81;;;-7.72;39.00
43480;BME280;29067;35.492;-97.520;2024-02-28T12:03:05;97994.96;;;-7.20;39.75
43480;BME280;29067;35.492;-97.520;2024-02-28T12:05:34;97996.79;;;-7.92;39.59
43480;BME280;29067;35.492;-97.520;2024-02-28T12:08:06;97994.46;;;-7.77;39.44
43480;BME280;29067;35.492;-97.520;2024-02-28T12:10:34;98008.77;;;-8.03;40.36
43480;BME280;29067;35.492;-97.520;2024-02-28T12:13:02;98004.74;;;-6.99;39.63
43480;BME280;29067;35.492;-97.520;2024-02-28T12:15:31;98010.32;;;-6.94;39.61
43480;BME280;29067;35.492;-97.520;2024-02-28T12:17:59;98036.39;;;-7.73;39.71
43480;BME280;29067;35.492;-97.520;2024-02-28T12:20:27;98039.42;;;-7.07;39.70
43480;BME280;29067;35.492;-97.520;2024-02-28T12:22:54;98052.43;;;-7.57;39.22
43480;BME280;29067;35.492;-97.520;2024-02-28T12:25:23;98069.33;;;-8.16;39.52
43480;BME280;29067;35.492;-97.520;2024-02-28T12:27:51;98065.47;;;-7.87;40.12
43480;BME280;29067;35.492;-97.520;2024-02-28T12:30:19;98077.44;;;-8.24;40.41
43480;BME280;29067;35.492;-97.520;2024-02-28T12:32:48;98078.77;;;-6.78;38.67
43480;BME280;29067;35.492;-97.520;2024-02-28T12:35:16;98103.85;;;-7.56;39.70
43480;BME280;29067;35.492;-97.520;2024-02-28T12:37:44;98123.05;;;-7.63;39.99
43480;BME280;29067;35.492;-97.520;2024-02-28T12:40:13;98130.31;;;-8.36;39.84
43480;BME280;29067;35.492;-97.520;2024-02-28T12:42:41;98138.52;;;-8.07;39.99
43480;BME280;29067;35.492;-97.520;2024-02-28T12:45:09;98142.74;;;-7.97;39.45
43480;BME280;29067;35.492;-97.520;2024-02-28T12:47:39;98143.04;;;-7.75;38.76
43480;BME280;29067;35.492;-97.520;2024-02-28T12:50:08;98146.10;;;-7.44;39.24